sensor_id;sensor_type;location;lat;lon;timestamp;P1;durP1;ratioP1;P2;durP2;ratioP2
13611;SDS011;6877;51.436;6.774;2022-12-16T00:02:31;57.70;;;25.73;;
13611;SDS011;6877;51.436;6.774;2022-12-16T00:05:02;65.73;;;26.67;;
13611;SDS011;6877;51.436;6.774;2022-12-16T00:07:34;54.10;;;26.13;;
13611;SDS011;6877;51.436;6.774;2022-12-16T00:10:06;65.03;;;29.37;;
13611;SDS011;6877;51.436;6.774;2022-12-16T00:12:38;60.60;;;28.17;;
13611;SDS011;6877;51.436;6.774;2022-12-16T00:15:10;63.80;;;27.70;;
13611;SDS011;6877;51.436;6.774;2022-12-16T00:17:41;61.03;;;27.53;;
13611;SDS011;6877;51.436;6.774;2022-12-16T00:20:08;72.70;;;29.60;;
13611;SDS011;6877;51.436;6.774;2022-12-16T00:22:39;58.40;;;26.70;;
13611;SDS011;6877;51.436;6.774;2022-12-16T00:25:11;61.50;;;28.57;;
13611;SDS011;6877;51.436;6.774;2022-12-16T00:27:42;59.67;;;26.90;;
13611;SDS011;6877;51.436;6.774;2022-12-16T00:30:14;65.73;;;25.90;;
13611;SDS011;6877;51.436;6.774;2022-12-16T00:32:40;71.37;;;29.83;;
13611;SDS011;6877;51.436;6.774;2022-12-16T00:35:11;68.13;;;31.27;;
13611;SDS011;6877;51.436;6.774;2022-12-16T00:37:43;69.47;;;29.87;;
13611;SDS011;6877;51.436;6.774;2022-12-16T00:40:17;72.07;;;30.73;;
13611;SDS011;6877;51.436;6.774;2022-12-16T00:42:44;68.97;;;29.73;;
13611;SDS011;6877;51.436;6.774;2022-12-16T00:45:15;65.87;;;28.60;;
13611;SDS011;6877;51.436;6.774;2022-12-16T00:47:42;78.30;;;31.40;;
13611;SDS011;6877;51.436;6.774;2022-12-16T00:50:13;66.93;;;29.77;;
13611;SDS011;6877;51.436;6.774;2022-12-16T00:52:45;70.70;;;28.90;;
13611;SDS011;6877;51.436;6.774;2022-12-16T00:55:18;75.60;;;29.67;;
13611;SDS011;6877;51.436;6.774;2022-12-16T00:57:49;72.73;;;31.40;;
13611;SDS011;6877;51.436;6.774;2022-12-16T01:00:16;70.10;;;30.13;;
13611;SDS011;6877;51.436;6.774;2022-12-16T01:02:49;75.17;;;30.00;;
13611;SDS011;6877;51.436;6.774;2022-12-16T01:05:21;65.00;;;30.40;;
13611;SDS011;6877;51.436;6.774;2022-12-16T01:07:56;64.97;;;27.80;;
13611;SDS011;6877;51.436;6.774;2022-12-16T01:10:28;66.90;;;31.00;;
13611;SDS011;6877;51.436;6.774;2022-12-16T01:12:59;74.70;;;30.80;;
13611;SDS011;6877;51.436;6.774;2022-12-16T01:15:30;71.70;;;29.43;;
13611;SDS011;6877;51.436;6.774;2022-12-16T01:18:02;70.47;;;32.27;;
13611;SDS011;6877;51.436;6.774;2022-12-16T01:20:33;65.80;;;29.97;;
13611;SDS011;6877;51.436;6.774;2022-12-16T01:23:05;69.90;;;28.67;;
13611;SDS011;6877;51.436;6.774;2022-12-16T01:25:36;66.70;;;29.40;;
13611;SDS011;6877;51.436;6.774;2022-12-16T01:28:03;73.50;;;31.53;;
13611;SDS011;6877;51.436;6.774;2022-12-16T01:30:34;69.80;;;28.57;;
13611;SDS011;6877;51.436;6.774;2022-12-16T01:33:06;69.43;;;27.87;;
13611;SDS011;6877;51.436;6.774;2022-12-16T01:35:37;67.47;;;29.00;;
13611;SDS011;6877;51.436;6.774;2022-12-16T01:38:08;80.17;;;29.53;;
13611;SDS011;6877;51.436;6.774;2022-12-16T01:40:40;73.00;;;29.37;;
13611;SDS011;6877;51.436;6.774;2022-12-16T01:43:11;77.57;;;32.27;;
13611;SDS011;6877;51.436;6.774;2022-12-16T01:45:44;74.43;;;30.43;;
13611;SDS011;6877;51.436;6.774;2022-12-16T01:51:23;63.13;;;28.33;;
13611;SDS011;6877;51.436;6.774;2022-12-16T01:56:50;66.30;;;30.73;;
13611;SDS011;6877;51.436;6.774;2022-12-16T01:59:20;78.50;;;31.63;;
13611;SDS011;6877;51.436;6.774;2022-12-16T02:01:55;66.90;;;29.17;;
13611;SDS011;6877;51.436;6.774;2022-12-16T02:04:27;62.63;;;29.13;;
13611;SDS011;6877;51.436;6.774;2022-12-16T02:06:59;63.63;;;29.07;;
13611;SDS011;6877;51.436;6.774;2022-12-16T02:09:31;73.57;;;30.50;;
13611;SDS011;6877;51.436;6.774;2022-12-16T02:12:09;62.43;;;27.77;;
13611;SDS011;6877;51.436;6.774;2022-12-16T02:15:07;63.43;;;27.10;;
13611;SDS011;6877;51.436;6.774;2022-12-16T02:21:14;63.30;;;28.53;;
13611;SDS011;6877;51.436;6.774;2022-12-16T02:26:59;69.90;;;30.33;;
13611;SDS011;6877;51.436;6.774;2022-12-16T02:32:33;60.93;;;26.87;;
13611;SDS011;6877;51.436;6.774;2022-12-16T02:35:09;69.60;;;28.27;;
13611;SDS011;6877;51.436;6.774;2022-12-16T02:43:15;68.90;;;30.57;;
13611;SDS011;6877;51.436;6.774;2022-12-16T02:46:06;68.93;;;30.27;;
13611;SDS011;6877;51.436;6.774;2022-12-16T02:48:38;75.40;;;33.13;;
13611;SDS011;6877;51.436;6.774;2022-12-16T02:51:10;70.93;;;30.77;;
13611;SDS011;6877;51.436;6.774;2022-12-16T02:53:41;63.53;;;28.80;;
13611;SDS011;6877;51.436;6.774;2022-12-16T03:04:50;66.83;;;29.90;;
13611;SDS011;6877;51.436;6.774;2022-12-16T03:07:26;69.43;;;30.50;;
13611;SDS011;6877;51.436;6.774;2022-12-16T03:10:03;65.57;;;27.50;;
13611;SDS011;6877;51.436;6.774;2022-12-16T03:12:39;71.03;;;29.67;;
13611;SDS011;6877;51.436;6.774;2022-12-16T03:15:14;64.03;;;27.33;;
13611;SDS011;6877;51.436;6.774;2022-12-16T03:17:43;68.50;;;29.13;;
13611;SDS011;6877;51.436;6.774;2022-12-16T03:20:15;66.33;;;29.67;;
13611;SDS011;6877;51.436;6.774;2022-12-16T03:22:51;75.37;;;32.90;;
13611;SDS011;6877;51.436;6.774;2022-12-16T03:25:25;77.13;;;33.00;;
13611;SDS011;6877;51.436;6.774;2022-12-16T03:28:02;72.23;;;30.53;;
13611;SDS011;6877;51.436;6.774;2022-12-16T03:30:35;69.50;;;30.40;;
13611;SDS011;6877;51.436;6.774;2022-12-16T03:35:58;68.07;;;30.43;;
13611;SDS011;6877;51.436;6.774;2022-12-16T03:38:40;76.90;;;32.47;;
13611;SDS011;6877;51.436;6.774;2022-12-16T03:41:15;64.00;;;26.57;;
13611;SDS011;6877;51.436;6.774;2022-12-16T03:43:48;70.50;;;31.87;;
13611;SDS011;6877;51.436;6.774;2022-12-16T03:46:21;68.77;;;30.87;;
13611;SDS011;6877;51.436;6.774;2022-12-16T03:48:52;61.07;;;28.10;;
13611;SDS011;6877;51.436;6.774;2022-12-16T03:51:24;71.90;;;30.53;;
13611;SDS011;6877;51.436;6.774;2022-12-16T03:53:55;72.80;;;30.67;;
13611;SDS011;6877;51.436;6.774;2022-12-16T03:56:26;71.57;;;28.73;;
13611;SDS011;6877;51.436;6.774;2022-12-16T03:58:53;61.97;;;30.53;;
13611;SDS011;6877;51.436;6.774;2022-12-16T04:01:24;73.23;;;31.30;;
13611;SDS011;6877;51.436;6.774;2022-12-16T04:03:56;60.07;;;27.67;;
13611;SDS011;6877;51.436;6.774;2022-12-16T04:06:27;69.03;;;30.17;;
13611;SDS011;6877;51.436;6.774;2022-12-16T04:08:59;76.90;;;29.57;;
13611;SDS011;6877;51.436;6.774;2022-12-16T04:11:25;83.13;;;31.17;;
13611;SDS011;6877;51.436;6.774;2022-12-16T04:14:15;73.67;;;30.67;;
13611;SDS011;6877;51.436;6.774;2022-12-16T04:17:04;69.00;;;30.83;;
13611;SDS011;6877;51.436;6.774;2022-12-16T04:19:54;71.37;;;30.40;;
13611;SDS011;6877;51.436;6.774;2022-12-16T04:22:44;67.27;;;30.30;;
13611;SDS011;6877;51.436;6.774;2022-12-16T04:25:33;77.00;;;30.47;;
13611;SDS011;6877;51.436;6.774;2022-12-16T04:28:06;76.13;;;30.97;;
13611;SDS011;6877;51.436;6.774;2022-12-16T04:30:37;70.43;;;29.87;;
13611;SDS011;6877;51.436;6.774;2022-12-16T04:33:09;71.77;;;28.97;;
13611;SDS011;6877;51.436;6.774;2022-12-16T04:36:02;74.07;;;30.53;;
13611;SDS011;6877;51.436;6.774;2022-12-16T04:38:53;76.70;;;30.87;;
13611;SDS011;6877;51.436;6.774;2022-12-16T04:41:43;69.80;;;30.60;;
13611;SDS011;6877;51.436;6.774;2022-12-16T04:44:33;72.40;;;30.50;;
13611;SDS011;6877;51.436;6.774;2022-12-16T04:47:23;63.53;;;30.00;;
13611;SDS011;6877;51.436;6.774;2022-12-16T04:50:13;67.83;;;30.67;;
13611;SDS011;6877;51.436;6.774;2022-12-16T04:53:02;75.77;;;32.00;;
13611;SDS011;6877;51.436;6.774;2022-12-16T04:55:47;74.80;;;31.30;;
13611;SDS011;6877;51.436;6.774;2022-12-16T04:58:46;64.37;;;28.87;;
13611;SDS011;6877;51.436;6.774;2022-12-16T05:01:31;73.00;;;31.37;;
13611;SDS011;6877;51.436;6.774;2022-12-16T05:04:21;88.73;;;32.13;;
13611;SDS011;6877;51.436;6.774;2022-12-16T05:07:11;75.90;;;31.30;;
13611;SDS011;6877;51.436;6.774;2022-12-16T05:10:01;88.03;;;35.83;;
13611;SDS011;6877;51.436;6.774;2022-12-16T05:12:52;81.63;;;34.37;;
13611;SDS011;6877;51.436;6.774;2022-12-16T05:15:43;65.80;;;30.80;;
13611;SDS011;6877;51.436;6.774;2022-12-16T05:18:28;68.43;;;31.93;;
13611;SDS011;6877;51.436;6.774;2022-12-16T05:21:18;72.30;;;32.03;;
13611;SDS011;6877;51.436;6.774;2022-12-16T05:24:08;76.00;;;31.63;;
13611;SDS011;6877;51.436;6.774;2022-12-16T05:26:58;78.87;;;33.27;;
13611;SDS011;6877;51.436;6.774;2022-12-16T05:30:10;84.40;;;31.23;;
13611;SDS011;6877;51.436;6.774;2022-12-16T05:33:07;66.43;;;31.40;;
13611;SDS011;6877;51.436;6.774;2022-12-16T05:35:57;67.67;;;30.13;;
13611;SDS011;6877;51.436;6.774;2022-12-16T05:38:46;78.83;;;32.73;;
13611;SDS011;6877;51.436;6.774;2022-12-16T05:41:37;73.80;;;31.97;;
13611;SDS011;6877;51.436;6.774;2022-12-16T05:44:27;67.77;;;30.73;;
13611;SDS011;6877;51.436;6.774;2022-12-16T05:47:18;76.00;;;31.70;;
13611;SDS011;6877;51.436;6.774;2022-12-16T05:50:08;79.77;;;31.83;;
13611;SDS011;6877;51.436;6.774;2022-12-16T05:52:58;77.47;;;32.40;;
13611;SDS011;6877;51.436;6.774;2022-12-16T05:55:48;76.70;;;29.40;;
13611;SDS011;6877;51.436;6.774;2022-12-16T05:58:38;74.27;;;28.80;;
13611;SDS011;6877;51.436;6.774;2022-12-16T06:01:28;67.20;;;27.90;;
13611;SDS011;6877;51.436;6.774;2022-12-16T06:04:18;70.63;;;31.97;;
13611;SDS011;6877;51.436;6.774;2022-12-16T06:07:08;73.57;;;30.97;;
13611;SDS011;6877;51.436;6.774;2022-12-16T06:09:58;79.93;;;31.57;;
13611;SDS011;6877;51.436;6.774;2022-12-16T06:12:48;82.40;;;32.93;;
13611;SDS011;6877;51.436;6.774;2022-12-16T06:15:38;68.03;;;29.00;;
13611;SDS011;6877;51.436;6.774;2022-12-16T06:18:27;69.53;;;29.50;;
13611;SDS011;6877;51.436;6.774;2022-12-16T06:21:17;65.90;;;28.73;;
13611;SDS011;6877;51.436;6.774;2022-12-16T06:24:07;66.67;;;29.47;;
13611;SDS011;6877;51.436;6.774;2022-12-16T06:26:57;73.07;;;31.00;;
13611;SDS011;6877;51.436;6.774;2022-12-16T06:29:47;72.20;;;30.40;;
13611;SDS011;6877;51.436;6.774;2022-12-16T06:32:37;76.63;;;31.60;;
13611;SDS011;6877;51.436;6.774;2022-12-16T06:35:27;84.27;;;31.30;;
13611;SDS011;6877;51.436;6.774;2022-12-16T06:38:17;80.73;;;31.30;;
13611;SDS011;6877;51.436;6.774;2022-12-16T06:41:09;70.90;;;31.53;;
13611;SDS011;6877;51.436;6.774;2022-12-16T06:43:58;74.07;;;33.47;;
13611;SDS011;6877;51.436;6.774;2022-12-16T06:46:48;79.63;;;32.80;;
13611;SDS011;6877;51.436;6.774;2022-12-16T06:49:33;70.87;;;30.43;;
13611;SDS011;6877;51.436;6.774;2022-12-16T06:52:23;67.77;;;30.57;;
13611;SDS011;6877;51.436;6.774;2022-12-16T06:55:13;65.20;;;28.00;;
13611;SDS011;6877;51.436;6.774;2022-12-16T06:58:03;83.75;;;42.05;;
13611;SDS011;6877;51.436;6.774;2022-12-16T07:00:54;67.40;;;29.90;;
13611;SDS011;6877;51.436;6.774;2022-12-16T07:03:43;70.83;;;30.83;;
13611;SDS011;6877;51.436;6.774;2022-12-16T07:06:33;71.67;;;31.83;;
13611;SDS011;6877;51.436;6.774;2022-12-16T07:09:23;65.07;;;30.93;;
13611;SDS011;6877;51.436;6.774;2022-12-16T07:12:16;59.83;;;27.00;;
13611;SDS011;6877;51.436;6.774;2022-12-16T07:15:01;77.70;;;31.77;;
13611;SDS011;6877;51.436;6.774;2022-12-16T07:17:52;73.07;;;30.80;;
13611;SDS011;6877;51.436;6.774;2022-12-16T07:21:01;78.30;;;32.27;;
13611;SDS011;6877;51.436;6.774;2022-12-16T07:23:51;76.77;;;33.37;;
13611;SDS011;6877;51.436;6.774;2022-12-16T07:26:41;73.07;;;31.17;;
13611;SDS011;6877;51.436;6.774;2022-12-16T07:29:31;63.30;;;30.63;;
13611;SDS011;6877;51.436;6.774;2022-12-16T07:32:21;69.40;;;31.27;;
13611;SDS011;6877;51.436;6.774;2022-12-16T07:35:28;66.80;;;29.60;;
13611;SDS011;6877;51.436;6.774;2022-12-16T07:38:18;70.73;;;32.33;;
13611;SDS011;6877;51.436;6.774;2022-12-16T07:41:08;75.03;;;30.93;;
13611;SDS011;6877;51.436;6.774;2022-12-16T07:43:58;69.77;;;32.93;;
13611;SDS011;6877;51.436;6.774;2022-12-16T07:46:47;67.43;;;29.93;;
13611;SDS011;6877;51.436;6.774;2022-12-16T07:49:38;74.63;;;30.87;;
13611;SDS011;6877;51.436;6.774;2022-12-16T07:52:28;67.80;;;32.53;;
13611;SDS011;6877;51.436;6.774;2022-12-16T07:55:17;62.90;;;30.17;;
13611;SDS011;6877;51.436;6.774;2022-12-16T07:58:08;76.27;;;34.57;;
13611;SDS011;6877;51.436;6.774;2022-12-16T08:00:55;74.20;;;33.83;;
13611;SDS011;6877;51.436;6.774;2022-12-16T08:03:45;66.70;;;31.77;;
13611;SDS011;6877;51.436;6.774;2022-12-16T08:06:35;72.87;;;32.50;;
13611;SDS011;6877;51.436;6.774;2022-12-16T08:09:25;76.00;;;31.70;;
13611;SDS011;6877;51.436;6.774;2022-12-16T08:12:15;67.50;;;31.87;;
13611;SDS011;6877;51.436;6.774;2022-12-16T08:15:00;74.23;;;33.27;;
13611;SDS011;6877;51.436;6.774;2022-12-16T08:17:50;61.83;;;30.60;;
13611;SDS011;6877;51.436;6.774;2022-12-16T08:20:41;66.27;;;30.43;;
13611;SDS011;6877;51.436;6.774;2022-12-16T08:23:26;67.70;;;33.30;;
13611;SDS011;6877;51.436;6.774;2022-12-16T08:26:16;73.77;;;31.03;;
13611;SDS011;6877;51.436;6.774;2022-12-16T08:29:06;69.45;;;32.63;;
13611;SDS011;6877;51.436;6.774;2022-12-16T08:31:56;61.33;;;30.80;;
13611;SDS011;6877;51.436;6.774;2022-12-16T08:34:46;60.47;;;29.30;;
13611;SDS011;6877;51.436;6.774;2022-12-16T08:37:36;80.53;;;30.87;;
13611;SDS011;6877;51.436;6.774;2022-12-16T08:40:26;77.97;;;29.70;;
13611;SDS011;6877;51.436;6.774;2022-12-16T08:43:16;88.57;;;33.00;;
13611;SDS011;6877;51.436;6.774;2022-12-16T08:46:11;89.85;;;33.20;;
13611;SDS011;6877;51.436;6.774;2022-12-16T08:49:01;91.40;;;32.83;;
13611;SDS011;6877;51.436;6.774;2022-12-16T08:51:51;81.10;;;32.63;;
13611;SDS011;6877;51.436;6.774;2022-12-16T08:54:41;95.57;;;34.90;;
13611;SDS011;6877;51.436;6.774;2022-12-16T08:57:51;83.30;;;31.23;;
13611;SDS011;6877;51.436;6.774;2022-12-16T09:00:37;90.38;;;33.22;;
13611;SDS011;6877;51.436;6.774;2022-12-16T09:03:27;82.75;;;31.70;;
13611;SDS011;6877;51.436;6.774;2022-12-16T09:06:17;88.60;;;32.83;;
13611;SDS011;6877;51.436;6.774;2022-12-16T09:09:09;85.40;;;34.05;;
13611;SDS011;6877;51.436;6.774;2022-12-16T09:11:54;86.07;;;31.63;;
13611;SDS011;6877;51.436;6.774;2022-12-16T09:14:44;75.15;;;31.13;;
13611;SDS011;6877;51.436;6.774;2022-12-16T09:17:34;84.43;;;34.60;;
13611;SDS011;6877;51.436;6.774;2022-12-16T09:20:24;94.33;;;32.97;;
13611;SDS011;6877;51.436;6.774;2022-12-16T09:23:09;81.68;;;35.67;;
13611;SDS011;6877;51.436;6.774;2022-12-16T09:25:59;91.80;;;37.15;;
13611;SDS011;6877;51.436;6.774;2022-12-16T09:28:43;93.20;;;36.65;;
13611;SDS011;6877;51.436;6.774;2022-12-16T09:31:33;104.60;;;36.30;;
13611;SDS011;6877;51.436;6.774;2022-12-16T09:34:23;96.80;;;38.20;;
13611;SDS011;6877;51.436;6.774;2022-12-16T09:37:13;105.15;;;41.17;;
13611;SDS011;6877;51.436;6.774;2022-12-16T09:40:03;100.85;;;36.05;;
13611;SDS011;6877;51.436;6.774;2022-12-16T09:42:56;105.90;;;38.50;;
13611;SDS011;6877;51.436;6.774;2022-12-16T09:52:40;81.90;;;35.63;;
13611;SDS011;6877;51.436;6.774;2022-12-16T09:55:39;105.65;;;38.92;;
13611;SDS011;6877;51.436;6.774;2022-12-16T09:58:35;96.78;;;38.42;;
13611;SDS011;6877;51.436;6.774;2022-12-16T10:01:31;100.65;;;37.15;;
13611;SDS011;6877;51.436;6.774;2022-12-16T10:04:25;96.22;;;36.35;;
13611;SDS011;6877;51.436;6.774;2022-12-16T10:07:16;100.40;;;36.85;;
13611;SDS011;6877;51.436;6.774;2022-12-16T10:13:16;82.97;;;37.25;;
13611;SDS011;6877;51.436;6.774;2022-12-16T10:16:28;73.13;;;33.40;;
13611;SDS011;6877;51.436;6.774;2022-12-16T10:23:07;81.43;;;36.25;;
13611;SDS011;6877;51.436;6.774;2022-12-16T10:26:05;95.85;;;37.50;;
13611;SDS011;6877;51.436;6.774;2022-12-16T10:29:03;76.93;;;36.40;;
13611;SDS011;6877;51.436;6.774;2022-12-16T10:31:55;94.57;;;38.70;;
13611;SDS011;6877;51.436;6.774;2022-12-16T10:34:45;102.47;;;40.58;;
13611;SDS011;6877;51.436;6.774;2022-12-16T10:37:36;119.95;;;43.42;;
13611;SDS011;6877;51.436;6.774;2022-12-16T10:40:26;110.70;;;44.63;;
13611;SDS011;6877;51.436;6.774;2022-12-16T10:43:21;103.82;;;40.97;;
13611;SDS011;6877;51.436;6.774;2022-12-16T10:46:19;87.63;;;42.95;;
13611;SDS011;6877;51.436;6.774;2022-12-16T10:49:12;109.85;;;44.17;;
13611;SDS011;6877;51.436;6.774;2022-12-16T10:52:04;93.75;;;41.75;;
13611;SDS011;6877;51.436;6.774;2022-12-16T10:54:55;95.97;;;41.55;;
13611;SDS011;6877;51.436;6.774;2022-12-16T10:58:04;96.40;;;40.72;;
13611;SDS011;6877;51.436;6.774;2022-12-16T11:01:21;90.38;;;42.15;;
13611;SDS011;6877;51.436;6.774;2022-12-16T11:07:29;101.93;;;40.00;;
13611;SDS011;6877;51.436;6.774;2022-12-16T11:13:18;91.68;;;38.75;;
13611;SDS011;6877;51.436;6.774;2022-12-16T11:16:12;97.78;;;39.97;;
13611;SDS011;6877;51.436;6.774;2022-12-16T11:19:03;87.75;;;39.08;;
13611;SDS011;6877;51.436;6.774;2022-12-16T11:21:52;92.75;;;42.00;;
13611;SDS011;6877;51.436;6.774;2022-12-16T11:25:02;96.32;;;40.83;;
13611;SDS011;6877;51.436;6.774;2022-12-16T11:28:00;105.53;;;45.90;;
13611;SDS011;6877;51.436;6.774;2022-12-16T11:31:12;85.25;;;39.72;;
13611;SDS011;6877;51.436;6.774;2022-12-16T11:34:03;97.25;;;40.70;;
13611;SDS011;6877;51.436;6.774;2022-12-16T11:36:59;107.15;;;42.25;;
13611;SDS011;6877;51.436;6.774;2022-12-16T11:39:59;115.80;;;43.55;;
13611;SDS011;6877;51.436;6.774;2022-12-16T11:42:46;83.93;;;42.78;;
13611;SDS011;6877;51.436;6.774;2022-12-16T11:45:42;92.13;;;38.58;;
13611;SDS011;6877;51.436;6.774;2022-12-16T11:48:39;108.68;;;43.50;;
13611;SDS011;6877;51.436;6.774;2022-12-16T11:51:29;96.18;;;43.65;;
13611;SDS011;6877;51.436;6.774;2022-12-16T11:54:24;74.70;;;38.38;;
13611;SDS011;6877;51.436;6.774;2022-12-16T11:57:18;104.72;;;43.17;;
13611;SDS011;6877;51.436;6.774;2022-12-16T12:00:13;88.03;;;43.22;;
13611;SDS011;6877;51.436;6.774;2022-12-16T12:03:08;92.15;;;41.25;;
13611;SDS011;6877;51.436;6.774;2022-12-16T12:15:02;88.25;;;39.67;;
13611;SDS011;6877;51.436;6.774;2022-12-16T12:21:23;85.88;;;40.17;;
13611;SDS011;6877;51.436;6.774;2022-12-16T12:24:20;100.55;;;43.13;;
13611;SDS011;6877;51.436;6.774;2022-12-16T12:27:24;99.40;;;43.38;;
13611;SDS011;6877;51.436;6.774;2022-12-16T12:30:21;103.63;;;47.45;;
13611;SDS011;6877;51.436;6.774;2022-12-16T12:33:15;105.18;;;42.65;;
13611;SDS011;6877;51.436;6.774;2022-12-16T12:47:40;113.07;;;45.40;;
13611;SDS011;6877;51.436;6.774;2022-12-16T12:50:42;95.63;;;44.42;;
13611;SDS011;6877;51.436;6.774;2022-12-16T12:57:26;108.13;;;46.63;;
13611;SDS011;6877;51.436;6.774;2022-12-16T13:00:22;107.25;;;47.05;;
13611;SDS011;6877;51.436;6.774;2022-12-16T13:06:18;118.28;;;47.70;;
13611;SDS011;6877;51.436;6.774;2022-12-16T13:12:24;110.05;;;50.97;;
13611;SDS011;6877;51.436;6.774;2022-12-16T13:20:50;132.23;;;47.92;;
13611;SDS011;6877;51.436;6.774;2022-12-16T13:23:42;120.15;;;50.45;;
13611;SDS011;6877;51.436;6.774;2022-12-16T13:26:30;108.93;;;44.47;;
13611;SDS011;6877;51.436;6.774;2022-12-16T13:29:26;147.02;;;55.53;;
13611;SDS011;6877;51.436;6.774;2022-12-16T13:35:02;126.88;;;48.97;;
13611;SDS011;6877;51.436;6.774;2022-12-16T13:37:54;144.63;;;54.30;;
13611;SDS011;6877;51.436;6.774;2022-12-16T13:40:56;154.85;;;53.00;;
13611;SDS011;6877;51.436;6.774;2022-12-16T13:44:07;135.27;;;49.97;;
13611;SDS011;6877;51.436;6.774;2022-12-16T13:46:58;141.00;;;49.38;;
13611;SDS011;6877;51.436;6.774;2022-12-16T13:49:49;132.40;;;48.85;;
13611;SDS011;6877;51.436;6.774;2022-12-16T14:04:33;111.18;;;43.30;;
13611;SDS011;6877;51.436;6.774;2022-12-16T14:07:25;143.32;;;54.38;;
13611;SDS011;6877;51.436;6.774;2022-12-16T14:10:24;163.07;;;54.97;;
13611;SDS011;6877;51.436;6.774;2022-12-16T14:21:56;189.70;;;64.35;;
13611;SDS011;6877;51.436;6.774;2022-12-16T14:24:52;140.30;;;53.65;;
13611;SDS011;6877;51.436;6.774;2022-12-16T14:27:37;169.32;;;57.47;;
13611;SDS011;6877;51.436;6.774;2022-12-16T14:30:28;165.70;;;59.30;;
13611;SDS011;6877;51.436;6.774;2022-12-16T14:39:06;193.88;;;60.13;;
13611;SDS011;6877;51.436;6.774;2022-12-16T14:41:53;162.90;;;59.95;;
13611;SDS011;6877;51.436;6.774;2022-12-16T14:44:38;190.50;;;61.28;;
13611;SDS011;6877;51.436;6.774;2022-12-16T14:47:24;168.30;;;60.60;;
13611;SDS011;6877;51.436;6.774;2022-12-16T14:50:25;185.63;;;61.25;;
13611;SDS011;6877;51.436;6.774;2022-12-16T14:53:13;179.85;;;58.00;;
13611;SDS011;6877;51.436;6.774;2022-12-16T14:56:17;178.18;;;60.00;;
13611;SDS011;6877;51.436;6.774;2022-12-16T14:59:16;188.07;;;70.60;;
13611;SDS011;6877;51.436;6.774;2022-12-16T15:05:22;185.38;;;61.30;;
13611;SDS011;6877;51.436;6.774;2022-12-16T15:08:16;163.25;;;57.28;;
13611;SDS011;6877;51.436;6.774;2022-12-16T15:11:08;168.52;;;54.83;;
13611;SDS011;6877;51.436;6.774;2022-12-16T15:14:02;139.00;;;52.28;;
13611;SDS011;6877;51.436;6.774;2022-12-16T15:16:48;141.95;;;51.42;;
13611;SDS011;6877;51.436;6.774;2022-12-16T15:19:37;141.63;;;49.15;;
13611;SDS011;6877;51.436;6.774;2022-12-16T15:22:27;199.80;;;60.05;;
13611;SDS011;6877;51.436;6.774;2022-12-16T15:25:30;176.20;;;56.97;;
13611;SDS011;6877;51.436;6.774;2022-12-16T15:31:22;158.93;;;54.95;;
13611;SDS011;6877;51.436;6.774;2022-12-16T15:37:17;162.05;;;49.67;;
13611;SDS011;6877;51.436;6.774;2022-12-16T15:40:13;130.20;;;47.67;;
13611;SDS011;6877;51.436;6.774;2022-12-16T15:43:03;134.43;;;49.10;;
13611;SDS011;6877;51.436;6.774;2022-12-16T15:45:53;155.30;;;48.47;;
13611;SDS011;6877;51.436;6.774;2022-12-16T15:48:43;120.80;;;42.67;;
13611;SDS011;6877;51.436;6.774;2022-12-16T15:51:55;135.95;;;46.03;;
13611;SDS011;6877;51.436;6.774;2022-12-16T15:54:53;125.22;;;41.50;;
13611;SDS011;6877;51.436;6.774;2022-12-16T15:57:38;138.05;;;43.03;;
13611;SDS011;6877;51.436;6.774;2022-12-16T16:06:02;160.98;;;56.60;;
13611;SDS011;6877;51.436;6.774;2022-12-16T16:08:52;159.68;;;51.03;;
13611;SDS011;6877;51.436;6.774;2022-12-16T16:11:37;142.27;;;48.20;;
13611;SDS011;6877;51.436;6.774;2022-12-16T16:14:22;152.10;;;51.15;;
13611;SDS011;6877;51.436;6.774;2022-12-16T16:17:11;130.50;;;46.97;;
13611;SDS011;6877;51.436;6.774;2022-12-16T16:20:05;112.55;;;42.90;;
13611;SDS011;6877;51.436;6.774;2022-12-16T16:22:51;159.80;;;55.40;;
13611;SDS011;6877;51.436;6.774;2022-12-16T16:25:40;135.02;;;46.78;;
13611;SDS011;6877;51.436;6.774;2022-12-16T16:28:25;152.00;;;45.83;;
13611;SDS011;6877;51.436;6.774;2022-12-16T16:31:10;105.90;;;43.78;;
13611;SDS011;6877;51.436;6.774;2022-12-16T16:33:55;165.48;;;52.70;;
13611;SDS011;6877;51.436;6.774;2022-12-16T16:36:40;146.10;;;50.83;;
13611;SDS011;6877;51.436;6.774;2022-12-16T16:39:34;130.05;;;48.60;;
13611;SDS011;6877;51.436;6.774;2022-12-16T16:42:24;124.22;;;43.10;;
13611;SDS011;6877;51.436;6.774;2022-12-16T16:45:09;172.10;;;57.20;;
13611;SDS011;6877;51.436;6.774;2022-12-16T16:48:04;141.60;;;47.33;;
13611;SDS011;6877;51.436;6.774;2022-12-16T16:50:55;146.55;;;50.53;;
13611;SDS011;6877;51.436;6.774;2022-12-16T16:53:41;139.10;;;48.67;;
13611;SDS011;6877;51.436;6.774;2022-12-16T16:56:33;193.20;;;58.42;;
13611;SDS011;6877;51.436;6.774;2022-12-16T16:59:22;147.88;;;53.85;;
13611;SDS011;6877;51.436;6.774;2022-12-16T17:02:15;154.52;;;53.60;;
13611;SDS011;6877;51.436;6.774;2022-12-16T17:05:03;200.45;;;55.40;;
13611;SDS011;6877;51.436;6.774;2022-12-16T17:07:49;152.60;;;50.50;;
13611;SDS011;6877;51.436;6.774;2022-12-16T17:10:34;166.48;;;50.10;;
13611;SDS011;6877;51.436;6.774;2022-12-16T17:13:25;161.00;;;54.83;;
13611;SDS011;6877;51.436;6.774;2022-12-16T17:16:10;165.88;;;53.75;;
13611;SDS011;6877;51.436;6.774;2022-12-16T17:18:56;175.57;;;53.72;;
13611;SDS011;6877;51.436;6.774;2022-12-16T17:21:42;195.40;;;59.70;;
13611;SDS011;6877;51.436;6.774;2022-12-16T17:24:26;184.85;;;59.67;;
13611;SDS011;6877;51.436;6.774;2022-12-16T17:27:15;187.85;;;58.60;;
13611;SDS011;6877;51.436;6.774;2022-12-16T17:30:12;181.52;;;56.75;;
13611;SDS011;6877;51.436;6.774;2022-12-16T17:33:05;166.07;;;55.47;;
13611;SDS011;6877;51.436;6.774;2022-12-16T17:35:50;172.95;;;56.13;;
13611;SDS011;6877;51.436;6.774;2022-12-16T17:38:39;179.55;;;60.08;;
13611;SDS011;6877;51.436;6.774;2022-12-16T17:41:27;162.45;;;55.35;;
13611;SDS011;6877;51.436;6.774;2022-12-16T17:44:18;184.50;;;54.67;;
13611;SDS011;6877;51.436;6.774;2022-12-16T17:47:03;147.25;;;49.47;;
13611;SDS011;6877;51.436;6.774;2022-12-16T17:49:53;143.20;;;52.53;;
13611;SDS011;6877;51.436;6.774;2022-12-16T17:52:43;172.35;;;54.92;;
13611;SDS011;6877;51.436;6.774;2022-12-16T17:55:28;182.05;;;54.95;;
13611;SDS011;6877;51.436;6.774;2022-12-16T17:58:12;172.23;;;54.38;;
13611;SDS011;6877;51.436;6.774;2022-12-16T18:01:01;163.52;;;52.45;;
13611;SDS011;6877;51.436;6.774;2022-12-16T18:03:48;176.63;;;57.25;;
13611;SDS011;6877;51.436;6.774;2022-12-16T18:06:33;156.90;;;53.53;;
13611;SDS011;6877;51.436;6.774;2022-12-16T18:09:19;171.35;;;57.17;;
13611;SDS011;6877;51.436;6.774;2022-12-16T18:12:04;192.48;;;54.80;;
13611;SDS011;6877;51.436;6.774;2022-12-16T18:14:54;139.10;;;49.92;;
13611;SDS011;6877;51.436;6.774;2022-12-16T18:17:46;170.07;;;53.70;;
13611;SDS011;6877;51.436;6.774;2022-12-16T18:20:32;171.50;;;54.13;;
13611;SDS011;6877;51.436;6.774;2022-12-16T18:23:23;183.60;;;55.53;;
13611;SDS011;6877;51.436;6.774;2022-12-16T18:26:13;156.93;;;51.90;;
13611;SDS011;6877;51.436;6.774;2022-12-16T18:28:57;179.52;;;56.38;;
13611;SDS011;6877;51.436;6.774;2022-12-16T18:31:43;190.82;;;56.58;;
13611;SDS011;6877;51.436;6.774;2022-12-16T18:34:33;160.00;;;49.15;;
13611;SDS011;6877;51.436;6.774;2022-12-16T18:37:25;177.38;;;54.53;;
13611;SDS011;6877;51.436;6.774;2022-12-16T18:40:10;161.95;;;53.95;;
13611;SDS011;6877;51.436;6.774;2022-12-16T18:42:55;188.80;;;53.40;;